createdAt,value
2022-10-30T00:00:40.691Z,11.93
2022-10-30T00:03:13.926Z,17.43
2022-10-30T00:05:45.290Z,13.73
2022-10-30T00:08:13.372Z,13.20
2022-10-30T00:10:40.663Z,19.70
2022-10-30T00:13:08.587Z,7.97
2022-10-30T00:15:35.671Z,9.27
2022-10-30T00:18:02.686Z,12.33
2022-10-30T00:20:29.620Z,13.30
2022-10-30T00:22:56.745Z,16.50
2022-10-30T00:25:23.708Z,11.20
2022-10-30T00:27:50.415Z,12.20
2022-10-30T00:30:18.879Z,11.80
2022-10-30T00:32:45.684Z,14.50
2022-10-30T00:35:12.558Z,9.97
2022-10-30T00:37:39.393Z,8.90
2022-10-30T00:40:06.953Z,10.33
2022-10-30T00:42:34.236Z,13.33
2022-10-30T00:45:01.092Z,8.83
2022-10-30T00:47:40.902Z,9.20
2022-10-30T00:50:19.019Z,12.07
2022-10-30T00:53:08.007Z,8.77
2022-10-30T00:55:56.350Z,8.57
2022-10-30T00:58:33.123Z,12.20
2022-10-30T01:01:03.284Z,11.80
2022-10-30T01:03:31.067Z,12.17
2022-10-30T01:06:02.970Z,7.50
2022-10-30T01:08:30.010Z,7.10
2022-10-30T01:10:58.486Z,8.27
2022-10-30T01:13:26.267Z,9.40
2022-10-30T01:16:31.913Z,8.17
2022-10-30T01:19:36.114Z,13.73
2022-10-30T01:22:18.075Z,6.10
2022-10-30T01:25:12.335Z,8.47
2022-10-30T01:27:44.589Z,9.47
2022-10-30T01:30:14.391Z,8.80
2022-10-30T01:32:41.091Z,8.40
2022-10-30T01:35:22.051Z,10.37
2022-10-30T01:37:52.539Z,8.20
2022-10-30T01:40:20.341Z,9.23
2022-10-30T01:42:55.991Z,9.90
2022-10-30T01:45:59.661Z,8.43
2022-10-30T01:48:38.280Z,8.77
2022-10-30T01:51:22.921Z,11.70
2022-10-30T01:54:09.222Z,9.20
2022-10-30T01:56:51.442Z,11.77
2022-10-30T01:59:37.025Z,8.00
2022-10-30T02:02:04.621Z,9.20
2022-10-30T02:04:32.187Z,9.80
2022-10-30T02:06:58.956Z,9.80
2022-10-30T02:09:26.283Z,8.10
2022-10-30T02:11:54.631Z,11.87
2022-10-30T02:14:32.503Z,12.23
2022-10-30T02:17:02.787Z,7.30
2022-10-30T02:19:29.589Z,12.30
2022-10-30T02:21:56.436Z,8.30
2022-10-30T02:24:23.225Z,12.07
2022-10-30T02:26:50.032Z,12.13
2022-10-30T02:29:20.703Z,11.00
2022-10-30T02:31:47.945Z,13.60
2022-10-30T02:34:15.293Z,9.87
2022-10-30T02:36:42.238Z,9.00
2022-10-30T02:39:09.197Z,12.60
2022-10-30T02:41:36.156Z,12.87
2022-10-30T02:44:03.348Z,7.63
2022-10-30T02:46:30.038Z,10.27
2022-10-30T02:48:56.912Z,10.20
2022-10-30T02:51:23.601Z,7.20
2022-10-30T02:53:50.454Z,5.90
2022-10-30T02:56:17.766Z,10.60
2022-10-30T02:58:44.449Z,10.57
2022-10-30T03:01:14.366Z,10.30
2022-10-30T03:03:41.602Z,9.77
2022-10-30T03:06:11.020Z,10.37
2022-10-30T03:08:38.055Z,12.17
2022-10-30T03:11:08.144Z,8.90
2022-10-30T03:13:35.735Z,8.33
2022-10-30T03:16:05.647Z,15.40
2022-10-30T03:18:33.151Z,14.40
2022-10-30T03:21:01.514Z,11.63
2022-10-30T03:23:29.346Z,9.87
2022-10-30T03:25:57.682Z,6.90
2022-10-30T03:28:26.413Z,7.63
2022-10-30T03:30:59.333Z,8.57
2022-10-30T03:33:26.065Z,8.50
2022-10-30T03:35:52.790Z,8.63
2022-10-30T03:38:19.516Z,7.53
2022-10-30T03:40:46.260Z,10.70
2022-10-30T03:43:13.104Z,6.60
2022-10-30T03:45:39.799Z,9.23
2022-10-30T03:48:06.958Z,9.67
2022-10-30T03:50:33.647Z,11.80
2022-10-30T03:53:00.442Z,10.67
2022-10-30T03:55:27.126Z,7.90
2022-10-30T03:57:53.818Z,9.33
2022-10-30T04:00:20.715Z,7.80
2022-10-30T04:02:49.330Z,7.33
2022-10-30T04:05:18.842Z,10.50
2022-10-30T04:07:46.075Z,9.03
2022-10-30T04:10:14.939Z,11.13
2022-10-30T04:12:43.430Z,9.33
2022-10-30T04:15:10.230Z,14.90
2022-10-30T04:17:36.924Z,10.30
2022-10-30T04:20:04.108Z,9.90
2022-10-30T04:22:30.844Z,9.23
2022-10-30T04:24:57.591Z,12.43
2022-10-30T04:27:24.422Z,17.90
2022-10-30T04:29:51.221Z,13.07
2022-10-30T04:32:17.943Z,8.50
2022-10-30T04:34:44.686Z,8.47
2022-10-30T04:37:11.429Z,11.03
2022-10-30T04:39:42.287Z,8.23
2022-10-30T04:42:12.235Z,10.13
2022-10-30T04:44:39.018Z,6.87
2022-10-30T04:47:05.686Z,9.27
2022-10-30T04:49:32.430Z,10.20
2022-10-30T04:51:59.342Z,10.67
2022-10-30T04:54:26.084Z,12.33
2022-10-30T04:56:52.893Z,6.87
2022-10-30T04:59:19.583Z,8.50
2022-10-30T05:01:46.447Z,12.13
2022-10-30T05:04:13.284Z,11.10
2022-10-30T05:06:39.994Z,14.37
2022-10-30T05:09:06.721Z,8.80
2022-10-30T05:11:33.389Z,9.57
2022-10-30T05:14:00.110Z,10.87
2022-10-30T05:16:26.797Z,8.13
2022-10-30T05:18:53.499Z,9.90
2022-10-30T05:21:20.295Z,9.30
2022-10-30T05:23:47.082Z,8.77
2022-10-30T05:26:13.825Z,10.60
2022-10-30T05:28:41.581Z,12.00
2022-10-30T05:31:08.415Z,7.67
2022-10-30T05:33:35.155Z,9.60
2022-10-30T05:36:01.897Z,11.50
2022-10-30T05:38:28.585Z,8.17
2022-10-30T05:40:55.290Z,8.87
2022-10-30T05:43:21.956Z,10.43
2022-10-30T05:45:51.777Z,8.73
2022-10-30T05:48:18.573Z,14.50
2022-10-30T05:50:45.369Z,9.27
2022-10-30T05:53:12.153Z,7.80
2022-10-30T05:55:38.890Z,18.37
2022-10-30T05:58:06.800Z,13.87
2022-10-30T06:00:35.815Z,9.80
2022-10-30T06:03:03.913Z,9.20
2022-10-30T06:05:33.242Z,14.53
2022-10-30T06:08:00.457Z,10.77
2022-10-30T06:10:27.956Z,11.27
2022-10-30T06:13:02.916Z,13.03
2022-10-30T06:15:30.656Z,9.77
2022-10-30T06:17:58.009Z,10.73
2022-10-30T06:20:28.026Z,13.00
2022-10-30T06:23:02.839Z,11.27
2022-10-30T06:25:36.298Z,10.60
2022-10-30T06:28:06.360Z,10.67
2022-10-30T06:30:33.611Z,13.23
2022-10-30T06:33:02.309Z,11.50
2022-10-30T06:35:29.763Z,8.30
2022-10-30T06:38:00.139Z,7.93
2022-10-30T06:40:27.685Z,8.70
2022-10-30T06:43:00.616Z,13.43
2022-10-30T06:45:27.672Z,8.43
2022-10-30T06:47:54.440Z,11.80
2022-10-30T06:50:22.431Z,7.40
2022-10-30T06:52:49.440Z,5.73
2022-10-30T06:55:16.588Z,10.03
2022-10-30T06:57:43.421Z,8.23
2022-10-30T07:00:10.855Z,7.70
2022-10-30T07:02:37.601Z,9.83
2022-10-30T07:05:04.897Z,6.87
2022-10-30T07:07:31.622Z,9.27
2022-10-30T07:09:58.320Z,44.43
2022-10-30T07:12:25.109Z,12.30
2022-10-30T07:14:51.908Z,11.93
2022-10-30T07:17:18.646Z,15.47
2022-10-30T07:19:45.388Z,8.00
2022-10-30T07:22:12.156Z,13.70
2022-10-30T07:24:38.976Z,15.10
2022-10-30T07:27:05.693Z,7.33
2022-10-30T07:29:32.405Z,13.60
2022-10-30T07:32:03.103Z,12.00
2022-10-30T07:34:30.860Z,11.53
2022-10-30T07:36:57.578Z,11.07
2022-10-30T07:39:24.314Z,9.00
2022-10-30T07:41:51.122Z,9.40
2022-10-30T07:44:18.323Z,11.80
2022-10-30T07:46:45.078Z,29.73
2022-10-30T07:49:11.824Z,10.30
2022-10-30T07:51:38.490Z,11.30
2022-10-30T07:54:05.271Z,7.70
2022-10-30T07:56:31.979Z,9.23
2022-10-30T07:58:58.776Z,17.37
2022-10-30T08:01:25.747Z,8.70
2022-10-30T08:03:52.793Z,13.03
2022-10-30T08:06:22.946Z,7.53
2022-10-30T08:08:53.267Z,8.50
2022-10-30T08:11:20.036Z,7.40
2022-10-30T08:13:47.053Z,9.23
2022-10-30T08:16:14.604Z,8.17
2022-10-30T08:18:42.652Z,10.03
2022-10-30T08:21:10.009Z,8.83
2022-10-30T08:23:37.167Z,8.80
2022-10-30T08:26:04.298Z,20.30
2022-10-30T08:28:32.894Z,7.73
2022-10-30T08:31:01.076Z,6.37
2022-10-30T08:33:28.347Z,10.00
2022-10-30T08:35:58.378Z,9.73
2022-10-30T08:38:26.548Z,8.47
2022-10-30T08:40:53.688Z,9.40
2022-10-30T08:43:20.763Z,11.67
2022-10-30T08:45:47.586Z,4.87
2022-10-30T08:48:16.202Z,8.87
2022-10-30T08:50:43.110Z,10.23
2022-10-30T08:53:14.391Z,9.40
2022-10-30T08:55:41.378Z,10.33
2022-10-30T08:58:08.094Z,7.93
2022-10-30T09:00:35.595Z,6.90
2022-10-30T09:03:02.842Z,7.43
2022-10-30T09:05:30.139Z,9.83
2022-10-30T09:07:59.112Z,14.03
2022-10-30T09:10:27.287Z,10.10
2022-10-30T09:12:58.498Z,13.67
2022-10-30T09:15:26.442Z,7.97
2022-10-30T09:17:58.651Z,6.97
2022-10-30T09:20:26.190Z,8.97
2022-10-30T09:22:52.917Z,12.00
2022-10-30T09:25:19.987Z,16.40
2022-10-30T09:27:46.982Z,6.10
2022-10-30T09:30:14.543Z,11.10
2022-10-30T09:32:41.471Z,16.63
2022-10-30T09:35:09.083Z,7.00
2022-10-30T09:37:39.427Z,11.20
2022-10-30T09:40:08.100Z,6.77
2022-10-30T09:42:46.581Z,13.53
2022-10-30T09:45:44.931Z,9.03
2022-10-30T09:48:25.084Z,13.40
2022-10-30T09:51:16.712Z,9.77
2022-10-30T09:54:05.999Z,5.90
2022-10-30T09:56:52.654Z,6.40
2022-10-30T10:00:03.978Z,8.23
2022-10-30T10:02:53.150Z,13.47
2022-10-30T10:05:29.236Z,10.30
2022-10-30T10:08:02.878Z,6.47
2022-10-30T10:10:44.018Z,9.47
2022-10-30T10:13:24.278Z,11.80
2022-10-30T10:15:56.966Z,10.20
2022-10-30T10:18:29.689Z,8.90
2022-10-30T10:21:01.383Z,8.50
2022-10-30T10:23:35.812Z,13.83
2022-10-30T10:26:14.390Z,10.53
2022-10-30T10:29:02.795Z,8.00
2022-10-30T10:31:58.043Z,9.70
2022-10-30T10:34:52.265Z,8.23
2022-10-30T10:37:44.060Z,8.80
2022-10-30T10:40:28.711Z,8.30
2022-10-30T10:43:16.998Z,7.73
2022-10-30T10:46:10.482Z,10.93
2022-10-30T10:48:55.437Z,12.13
2022-10-30T10:51:30.174Z,13.07
2022-10-30T10:54:02.302Z,11.23
2022-10-30T10:56:35.128Z,15.53
2022-10-30T10:59:08.911Z,9.07
2022-10-30T11:01:49.735Z,7.17
2022-10-30T11:04:40.175Z,12.90
2022-10-30T11:07:25.190Z,13.50
2022-10-30T11:09:54.044Z,7.97
2022-10-30T11:12:28.521Z,8.40
2022-10-30T11:15:01.779Z,18.23
2022-10-30T11:17:41.426Z,8.10
2022-10-30T11:20:36.064Z,7.00
2022-10-30T11:23:03.039Z,13.60
2022-10-30T11:25:38.789Z,9.80
2022-10-30T11:28:06.326Z,8.17
2022-10-30T11:30:33.176Z,8.50
2022-10-30T11:33:19.893Z,10.27
2022-10-30T11:35:46.592Z,10.73
2022-10-30T11:38:20.020Z,13.90
2022-10-30T11:40:52.712Z,8.00
2022-10-30T11:43:23.443Z,8.80
2022-10-30T11:45:51.099Z,8.67
2022-10-30T11:48:29.385Z,12.40
2022-10-30T11:51:01.227Z,8.20
2022-10-30T11:53:34.908Z,10.77
2022-10-30T11:56:04.136Z,8.13
2022-10-30T11:58:42.473Z,8.13
2022-10-30T12:01:27.959Z,8.13
2022-10-30T12:03:56.214Z,12.67
2022-10-30T12:06:22.889Z,5.73
2022-10-30T12:09:22.664Z,5.57
2022-10-30T12:11:50.010Z,7.47
2022-10-30T12:14:22.846Z,8.40
2022-10-30T12:16:52.189Z,9.20
2022-10-30T12:19:21.817Z,10.67
2022-10-30T12:21:54.499Z,6.43
2022-10-30T12:24:31.856Z,9.00
2022-10-30T12:27:03.203Z,9.83
2022-10-30T12:30:07.304Z,12.47
2022-10-30T12:32:50.008Z,15.63
2022-10-30T12:35:59.020Z,7.97
2022-10-30T12:38:34.976Z,10.53
2022-10-30T12:41:04.628Z,9.93
2022-10-30T12:43:36.067Z,10.43
2022-10-30T12:46:33.284Z,9.03
2022-10-30T12:49:29.260Z,7.80
2022-10-30T12:52:01.937Z,14.10
2022-10-30T12:54:36.297Z,6.83
2022-10-30T12:57:13.754Z,12.67
2022-10-30T13:00:01.712Z,8.30
2022-10-30T13:02:59.804Z,8.20
2022-10-30T13:05:39.681Z,20.07
2022-10-30T13:08:28.053Z,5.80
2022-10-30T13:11:08.589Z,7.93
2022-10-30T13:13:43.760Z,6.30
2022-10-30T13:16:18.825Z,6.73
2022-10-30T13:18:45.591Z,7.30
2022-10-30T13:21:26.975Z,7.43
2022-10-30T13:24:10.986Z,9.00
2022-10-30T13:26:58.461Z,6.73
2022-10-30T13:29:46.428Z,8.90
2022-10-30T13:32:31.699Z,9.70
2022-10-30T13:35:35.880Z,7.70
2022-10-30T13:38:14.901Z,10.70
2022-10-30T13:41:12.396Z,7.83
2022-10-30T13:43:53.784Z,13.87
2022-10-30T13:46:32.311Z,11.43
2022-10-30T13:49:18.455Z,8.23
2022-10-30T13:52:08.496Z,9.17
2022-10-30T13:54:44.334Z,7.43
2022-10-30T13:57:29.798Z,6.10
2022-10-30T13:59:59.934Z,8.70
2022-10-30T14:03:03.260Z,8.67
2022-10-30T14:05:48.323Z,9.10
2022-10-30T14:08:37.932Z,9.30
2022-10-30T14:11:12.253Z,7.40
2022-10-30T14:13:46.607Z,11.63
2022-10-30T14:16:42.233Z,7.20
2022-10-30T14:19:10.009Z,9.87
2022-10-30T14:21:44.131Z,10.93
2022-10-30T14:24:28.113Z,9.60
2022-10-30T14:27:07.096Z,8.20
2022-10-30T14:29:36.502Z,6.63
2022-10-30T14:32:23.465Z,8.73
2022-10-30T14:34:53.266Z,7.63
2022-10-30T14:37:27.011Z,5.50
2022-10-30T14:39:55.617Z,7.73
2022-10-30T14:42:41.197Z,12.90
2022-10-30T14:45:24.672Z,10.63
2022-10-30T14:47:57.498Z,8.60
2022-10-30T14:50:27.315Z,8.20
2022-10-30T14:53:31.485Z,8.10
2022-10-30T14:56:07.628Z,9.67
2022-10-30T14:58:36.936Z,6.60
2022-10-30T15:01:03.717Z,10.80
2022-10-30T15:03:37.843Z,9.80
2022-10-30T15:06:24.752Z,7.43
2022-10-30T15:09:23.977Z,9.33
2022-10-30T15:12:02.433Z,6.80
2022-10-30T15:17:24.581Z,9.73
2022-10-30T15:19:51.374Z,9.63
2022-10-30T15:22:21.388Z,8.27
2022-10-30T15:24:50.765Z,6.53
2022-10-30T15:27:23.695Z,14.43
2022-10-30T15:29:56.831Z,13.57
2022-10-30T15:32:25.061Z,11.67
2022-10-30T15:35:01.877Z,9.47
2022-10-30T15:37:29.135Z,8.57
2022-10-30T15:40:16.924Z,9.90
2022-10-30T15:42:44.126Z,9.63
2022-10-30T15:45:20.237Z,7.00
2022-10-30T15:47:59.621Z,6.90
2022-10-30T15:50:26.664Z,11.90
2022-10-30T15:52:54.032Z,8.63
2022-10-30T15:55:27.973Z,13.57
2022-10-30T15:58:03.861Z,11.60
2022-10-30T16:00:37.071Z,11.10
2022-10-30T16:03:12.759Z,11.80
2022-10-30T16:05:39.719Z,11.40
2022-10-30T16:08:24.241Z,8.00
2022-10-30T16:10:54.953Z,13.53
2022-10-30T16:13:31.813Z,13.30
2022-10-30T16:16:00.407Z,8.83
2022-10-30T16:18:30.473Z,11.87
2022-10-30T16:21:05.141Z,11.40
2022-10-30T16:23:57.573Z,6.90
2022-10-30T16:26:36.747Z,13.10
2022-10-30T16:29:26.165Z,11.70
2022-10-30T16:31:53.674Z,9.33
2022-10-30T16:34:31.146Z,10.47
2022-10-30T16:36:59.111Z,13.60
2022-10-30T16:39:27.661Z,15.83
2022-10-30T16:41:58.410Z,10.57
2022-10-30T16:44:43.410Z,12.93
2022-10-30T16:47:23.923Z,22.27
2022-10-30T16:49:56.705Z,18.23
2022-10-30T16:52:29.694Z,15.53
2022-10-30T16:55:05.809Z,17.03
2022-10-30T16:57:43.629Z,15.00
2022-10-30T17:00:36.948Z,12.27
2022-10-30T17:03:10.339Z,17.73
2022-10-30T17:05:38.282Z,11.17
2022-10-30T17:08:30.738Z,16.70
2022-10-30T17:11:03.147Z,13.53
2022-10-30T17:13:34.273Z,14.80
2022-10-30T17:16:20.328Z,14.57
2022-10-30T17:18:52.674Z,18.03
2022-10-30T17:21:39.607Z,21.83
2022-10-30T17:24:19.164Z,21.90
2022-10-30T17:26:55.681Z,14.10
2022-10-30T17:29:37.734Z,19.77
2022-10-30T17:32:06.023Z,17.40
2022-10-30T17:34:38.726Z,18.60
2022-10-30T17:37:05.543Z,21.50
2022-10-30T17:39:32.347Z,19.50
2022-10-30T17:41:59.159Z,15.43
2022-10-30T17:44:26.618Z,16.43
2022-10-30T17:46:54.589Z,14.30
2022-10-30T17:49:29.920Z,24.00
2022-10-30T17:51:57.048Z,20.63
2022-10-30T17:54:24.144Z,23.50
2022-10-30T17:56:51.551Z,17.40
2022-10-30T17:59:18.408Z,18.97
2022-10-30T18:01:45.233Z,22.83
2022-10-30T18:04:20.935Z,18.07
2022-10-30T18:06:48.605Z,21.13
2022-10-30T18:09:15.712Z,28.70
2022-10-30T18:11:42.519Z,25.27
2022-10-30T18:14:11.125Z,20.00
2022-10-30T18:16:38.315Z,20.97
2022-10-30T18:19:08.924Z,18.83
2022-10-30T18:21:35.737Z,18.70
2022-10-30T18:24:02.562Z,23.23
2022-10-30T18:26:30.255Z,21.93
2022-10-30T18:28:57.004Z,22.53
2022-10-30T18:31:26.216Z,19.40
2022-10-30T18:33:53.093Z,21.17
2022-10-30T18:36:24.515Z,22.93
2022-10-30T18:38:54.743Z,21.97
2022-10-30T18:41:37.191Z,20.33
2022-10-30T18:44:04.952Z,26.47
2022-10-30T18:46:33.727Z,16.70
2022-10-30T18:49:00.472Z,18.23
2022-10-30T18:51:28.393Z,18.23
2022-10-30T18:53:57.157Z,20.40
2022-10-30T18:56:26.911Z,24.17
2022-10-30T18:58:58.688Z,26.87
2022-10-30T19:01:32.135Z,23.40
2022-10-30T19:04:03.765Z,23.77
2022-10-30T19:06:32.929Z,20.07
2022-10-30T19:08:59.732Z,25.20
2022-10-30T19:11:28.237Z,20.43
2022-10-30T19:13:57.193Z,23.37
2022-10-30T19:16:26.885Z,17.63
2022-10-30T19:18:53.887Z,16.23
2022-10-30T19:21:25.831Z,17.23
2022-10-30T19:23:54.213Z,19.30
2022-10-30T19:26:21.078Z,29.83
2022-10-30T19:28:47.919Z,27.10
2022-10-30T19:31:16.893Z,25.30
2022-10-30T19:33:44.366Z,18.90
2022-10-30T19:36:25.779Z,17.90
2022-10-30T19:38:52.935Z,18.30
2022-10-30T19:41:19.879Z,21.03
2022-10-30T19:43:46.719Z,20.53
2022-10-30T19:46:14.733Z,23.13
2022-10-30T19:48:58.747Z,17.83
2022-10-30T19:51:31.955Z,18.33
2022-10-30T19:53:58.679Z,16.77
2022-10-30T19:56:25.366Z,17.53
2022-10-30T19:58:52.061Z,18.33
2022-10-30T20:01:18.930Z,17.40
2022-10-30T20:03:45.810Z,16.80
2022-10-30T20:06:15.355Z,16.23
2022-10-30T20:08:42.640Z,20.77
2022-10-30T20:11:09.342Z,18.53
2022-10-30T20:13:37.295Z,15.00
2022-10-30T20:16:05.418Z,16.87
2022-10-30T20:18:34.600Z,16.60
2022-10-30T20:21:05.220Z,18.77
2022-10-30T20:23:31.950Z,18.60
2022-10-30T20:26:01.518Z,23.40
2022-10-30T20:28:35.386Z,16.37
2022-10-30T20:31:02.382Z,20.77
2022-10-30T20:33:29.504Z,17.70
2022-10-30T20:35:56.717Z,23.10
2022-10-30T20:38:32.968Z,24.60
2022-10-30T20:41:02.651Z,16.50
2022-10-30T20:43:37.769Z,21.33
2022-10-30T20:46:06.614Z,17.23
2022-10-30T20:48:33.382Z,19.33
2022-10-30T20:51:01.576Z,16.40
2022-10-30T20:53:29.051Z,18.40
2022-10-30T20:55:56.017Z,18.63
2022-10-30T20:58:22.824Z,24.67
2022-10-30T21:00:49.887Z,18.13
2022-10-30T21:03:16.950Z,24.30
2022-10-30T21:05:46.066Z,18.60
2022-10-30T21:08:16.168Z,22.63
2022-10-30T21:10:43.000Z,21.23
2022-10-30T21:13:11.202Z,22.07
2022-10-30T21:15:43.139Z,20.00
2022-10-30T21:18:11.690Z,25.77
2022-10-30T21:20:39.242Z,23.50
2022-10-30T21:23:06.566Z,20.30
2022-10-30T21:25:33.619Z,20.90
2022-10-30T21:28:00.793Z,16.83
2022-10-30T21:30:27.953Z,19.77
2022-10-30T21:32:54.726Z,20.17
2022-10-30T21:35:21.528Z,17.70
2022-10-30T21:37:48.336Z,20.90
2022-10-30T21:40:15.183Z,18.93
2022-10-30T21:42:41.947Z,19.40
2022-10-30T21:45:09.988Z,18.27
2022-10-30T21:47:36.731Z,19.97
2022-10-30T21:50:07.625Z,16.40
2022-10-30T21:52:36.166Z,18.60
2022-10-30T21:55:03.198Z,15.47
2022-10-30T21:57:30.075Z,15.23
2022-10-30T21:59:58.908Z,12.97
2022-10-30T22:02:28.617Z,12.70
2022-10-30T22:04:55.758Z,17.47
2022-10-30T22:07:22.538Z,15.40
2022-10-30T22:09:49.333Z,15.30
2022-10-30T22:12:16.039Z,14.27
2022-10-30T22:14:42.817Z,13.40
2022-10-30T22:17:09.544Z,16.57
2022-10-30T22:19:37.158Z,14.30
2022-10-30T22:22:04.036Z,14.10
2022-10-30T22:24:30.865Z,15.90
2022-10-30T22:26:57.588Z,15.43
2022-10-30T22:29:24.324Z,16.83
2022-10-30T22:31:51.426Z,9.87
2022-10-30T22:34:18.163Z,11.40
2022-10-30T22:36:44.964Z,10.60
2022-10-30T22:39:13.286Z,11.73
2022-10-30T22:41:40.252Z,17.40
2022-10-30T22:44:11.575Z,14.97
2022-10-30T22:46:38.597Z,10.97
2022-10-30T22:49:06.356Z,11.97
2022-10-30T22:51:35.445Z,12.60
2022-10-30T22:54:04.589Z,14.93
2022-10-30T22:56:33.629Z,14.97
2022-10-30T22:59:02.166Z,13.60
2022-10-30T23:01:31.573Z,11.00
2022-10-30T23:04:00.851Z,9.50
2022-10-30T23:06:29.455Z,10.13
2022-10-30T23:08:57.954Z,9.67
2022-10-30T23:11:25.797Z,11.63
2022-10-30T23:13:52.553Z,14.93
2022-10-30T23:16:22.346Z,14.20
2022-10-30T23:18:50.197Z,12.50
2022-10-30T23:21:20.820Z,24.93
2022-10-30T23:23:48.348Z,22.50
2022-10-30T23:26:21.350Z,17.43
2022-10-30T23:28:50.236Z,21.43
2022-10-30T23:31:28.238Z,19.40
2022-10-30T23:33:57.792Z,20.20
2022-10-30T23:36:25.198Z,20.00
2022-10-30T23:38:58.011Z,13.83
2022-10-30T23:41:28.117Z,17.27
2022-10-30T23:43:56.643Z,15.93
2022-10-30T23:46:23.433Z,18.30
2022-10-30T23:48:50.568Z,15.67
2022-10-30T23:51:19.814Z,24.27
2022-10-30T23:53:46.648Z,12.70
2022-10-30T23:56:13.791Z,14.00
2022-10-30T23:58:44.373Z,15.53
